Ashland, New Hampshire
Current Conditions -  °F | °C
As of 12:55 AM on Thursday 27 Nov 2014 (Local Time) from K1P1 Reporting Station
Light Snow Light Snow  
Wind Chill: -4°   Ceiling: NA
Heat Index:   Visibility: 5mi
Dew Point:   Wind: 9mph
Humidity: 100%   Direction: 280°W
Pressure: 29.77"   Gusts: NA
Location:  43.7°N, 71.63°W
Report Text: K1P1 270555Z AUTO 28008KT 5SM -SN 00/00 A2977 RMK AO2 P0002 6//// T00000000
Loading
Personal Weather Stations






























Interactive Weather Map New forecast layout! Learn more

10-Day Weather Forecast

Advertisements
Track Severe Weather on mobile